createdAt,value
2018-08-17T00:00:26.180Z,19.00
2018-08-17T00:02:54.683Z,18.99
2018-08-17T00:05:23.278Z,18.93
2018-08-17T00:07:51.797Z,18.90
2018-08-17T00:10:20.298Z,18.84
2018-08-17T00:12:48.767Z,18.89
2018-08-17T00:15:17.302Z,18.82
2018-08-17T00:17:46.172Z,18.78
2018-08-17T00:20:14.762Z,18.65
2018-08-17T00:22:43.274Z,18.57
2018-08-17T00:25:11.810Z,18.52
2018-08-17T00:27:40.305Z,18.44
2018-08-17T00:30:09.442Z,18.37
2018-08-17T00:32:37.928Z,18.38
2018-08-17T00:35:06.516Z,18.37
2018-08-17T00:37:35.053Z,18.40
2018-08-17T00:40:03.622Z,18.38
2018-08-17T00:42:32.125Z,18.36
2018-08-17T00:45:00.713Z,18.50
2018-08-17T00:47:29.227Z,18.52
2018-08-17T00:49:57.694Z,18.50
2018-08-17T00:52:26.213Z,18.54
2018-08-17T00:54:54.713Z,18.37
2018-08-17T00:57:23.265Z,18.29
2018-08-17T00:59:51.754Z,18.33
2018-08-17T01:02:20.293Z,18.35
2018-08-17T01:04:48.777Z,18.34
2018-08-17T01:07:17.302Z,18.25
2018-08-17T01:09:45.753Z,17.99
2018-08-17T01:12:14.281Z,17.88
2018-08-17T01:14:42.774Z,17.81
2018-08-17T01:17:11.296Z,17.85
2018-08-17T01:19:39.758Z,17.84
2018-08-17T01:22:08.261Z,17.86
2018-08-17T01:24:36.721Z,17.90
2018-08-17T01:27:05.332Z,17.87
2018-08-17T01:29:33.799Z,17.84
2018-08-17T01:32:02.342Z,17.85
2018-08-17T01:34:30.810Z,17.94
2018-08-17T01:36:59.316Z,17.89
2018-08-17T01:39:27.797Z,17.76
2018-08-17T01:41:56.302Z,17.69
2018-08-17T01:44:24.817Z,17.67
2018-08-17T01:46:53.314Z,17.67
2018-08-17T01:49:21.790Z,17.66
2018-08-17T01:51:50.279Z,17.73
2018-08-17T01:54:18.773Z,17.69
2018-08-17T01:56:47.270Z,17.72
2018-08-17T01:59:15.728Z,17.63
2018-08-17T02:01:44.261Z,17.50
2018-08-17T02:04:12.749Z,17.31
2018-08-17T02:06:41.237Z,17.22
2018-08-17T02:09:11.509Z,17.07
2018-08-17T02:11:43.262Z,17.07
2018-08-17T02:14:11.733Z,17.04
2018-08-17T02:16:40.540Z,17.06
2018-08-17T02:19:10.151Z,17.14
2018-08-17T02:21:38.682Z,17.10
2018-08-17T02:24:07.167Z,17.21
2018-08-17T02:26:35.682Z,17.20
2018-08-17T02:29:04.181Z,17.23
2018-08-17T02:31:32.685Z,17.24
2018-08-17T02:34:01.170Z,17.34
2018-08-17T02:36:29.689Z,17.30
2018-08-17T02:38:58.161Z,17.33
2018-08-17T02:41:27.037Z,17.42
2018-08-17T02:43:55.549Z,17.47
2018-08-17T02:46:24.069Z,17.41
2018-08-17T02:48:52.564Z,17.43
2018-08-17T02:51:21.071Z,17.31
2018-08-17T02:53:49.597Z,17.20
2018-08-17T02:56:18.066Z,17.14
2018-08-17T02:58:46.541Z,17.10
2018-08-17T03:01:15.034Z,17.16
2018-08-17T03:03:43.536Z,17.18
2018-08-17T03:06:11.989Z,17.11
2018-08-17T03:08:40.525Z,17.15
2018-08-17T03:11:08.996Z,17.17
2018-08-17T03:13:37.520Z,17.07
2018-08-17T03:16:06.001Z,17.02
2018-08-17T03:18:34.523Z,16.95
2018-08-17T03:21:03.013Z,16.93
2018-08-17T03:23:31.526Z,16.89
2018-08-17T03:25:59.998Z,16.91
2018-08-17T03:28:28.531Z,16.92
2018-08-17T03:30:57.056Z,16.94
2018-08-17T03:33:25.570Z,16.75
2018-08-17T03:35:54.049Z,16.62
2018-08-17T03:38:22.583Z,16.53
2018-08-17T03:40:51.084Z,16.51
2018-08-17T03:43:19.598Z,16.55
2018-08-17T03:45:48.073Z,16.48
2018-08-17T03:48:16.622Z,16.56
2018-08-17T03:50:45.102Z,16.45
2018-08-17T03:53:13.624Z,16.40
2018-08-17T03:55:42.129Z,16.44
2018-08-17T03:58:10.636Z,16.42
2018-08-17T04:00:39.106Z,16.45
2018-08-17T04:03:07.690Z,16.42
2018-08-17T04:05:36.184Z,16.44
2018-08-17T04:08:04.737Z,16.45
2018-08-17T04:10:33.202Z,16.46
2018-08-17T04:13:01.715Z,16.41
2018-08-17T04:15:30.212Z,16.47
2018-08-17T04:17:58.778Z,16.46
2018-08-17T04:20:27.265Z,16.46
2018-08-17T04:22:55.778Z,16.51
2018-08-17T04:25:24.544Z,16.60
2018-08-17T04:27:53.031Z,16.68
2018-08-17T04:30:21.558Z,16.61
2018-08-17T04:32:50.065Z,16.57
2018-08-17T04:35:18.567Z,16.57
2018-08-17T04:37:47.054Z,16.51
2018-08-17T04:40:15.518Z,16.26
2018-08-17T04:42:44.054Z,16.29
2018-08-17T04:45:12.557Z,16.28
2018-08-17T04:47:41.074Z,16.29
2018-08-17T04:50:10.290Z,16.39
2018-08-17T04:52:39.489Z,16.41
2018-08-17T04:55:08.417Z,16.55
2018-08-17T04:57:36.985Z,16.58
2018-08-17T05:00:07.293Z,16.67
2018-08-17T05:02:36.047Z,16.75
2018-08-17T05:05:04.857Z,16.81
2018-08-17T05:07:33.566Z,17.00
2018-08-17T05:10:02.622Z,17.01
2018-08-17T05:12:31.109Z,17.03
2018-08-17T05:14:59.612Z,17.20
2018-08-17T05:17:28.076Z,17.26
2018-08-17T05:19:56.584Z,17.32
2018-08-17T05:22:25.064Z,17.34
2018-08-17T05:24:53.607Z,17.38
2018-08-17T05:27:22.127Z,17.50
2018-08-17T05:29:50.628Z,17.61
2018-08-17T05:32:19.167Z,17.70
2018-08-17T05:34:47.676Z,17.77
2018-08-17T05:37:16.174Z,17.76
2018-08-17T05:39:44.682Z,17.87
2018-08-17T05:42:13.193Z,17.82
2018-08-17T05:44:41.765Z,17.87
2018-08-17T05:47:10.338Z,18.18
2018-08-17T05:49:39.057Z,18.12
2018-08-17T05:52:08.100Z,18.22
2018-08-17T05:54:36.598Z,18.36
2018-08-17T05:57:05.260Z,18.56
2018-08-17T05:59:34.385Z,18.63
2018-08-17T06:02:02.925Z,18.58
2018-08-17T06:04:32.038Z,18.71
2018-08-17T06:07:00.513Z,18.76
2018-08-17T06:09:29.365Z,18.92
2018-08-17T06:11:59.211Z,19.16
2018-08-17T06:14:27.794Z,19.33
2018-08-17T06:16:56.901Z,19.36
2018-08-17T06:19:25.543Z,19.57
2018-08-17T06:21:54.058Z,19.59
2018-08-17T06:24:29.786Z,19.80
2018-08-17T06:26:58.426Z,19.98
2018-08-17T06:29:26.952Z,20.20
2018-08-17T06:31:55.658Z,20.43
2018-08-17T06:34:24.414Z,20.61
2018-08-17T06:36:52.905Z,20.83
2018-08-17T06:39:21.441Z,21.12
2018-08-17T06:41:49.970Z,21.30
2018-08-17T06:44:18.510Z,21.44
2018-08-17T06:46:47.049Z,21.83
2018-08-17T06:49:15.612Z,22.18
2018-08-17T06:51:44.137Z,22.55
2018-08-17T06:54:12.727Z,22.67
2018-08-17T06:56:41.254Z,22.92
2018-08-17T06:59:09.822Z,23.18
2018-08-17T07:01:38.371Z,23.32
2018-08-17T07:04:07.379Z,23.37
2018-08-17T07:06:35.908Z,23.81
2018-08-17T07:09:06.070Z,23.99
2018-08-17T07:11:34.631Z,24.33
2018-08-17T07:14:03.146Z,24.38
2018-08-17T07:16:31.716Z,24.76
2018-08-17T07:19:00.331Z,25.24
2018-08-17T07:21:28.926Z,25.52
2018-08-17T07:23:57.776Z,25.91
2018-08-17T07:26:28.148Z,27.02
2018-08-17T07:28:56.736Z,27.75
2018-08-17T07:31:25.557Z,29.74
2018-08-17T07:33:54.210Z,32.78
2018-08-17T07:36:22.846Z,34.65
2018-08-17T07:38:51.381Z,35.26
2018-08-17T07:41:19.889Z,36.30
2018-08-17T07:43:48.341Z,37.21
2018-08-17T07:46:16.827Z,37.11
2018-08-17T07:48:45.263Z,37.07
2018-08-17T07:51:13.744Z,37.94
2018-08-17T07:53:42.189Z,37.75
2018-08-17T07:56:10.674Z,38.32
2018-08-17T07:58:39.153Z,39.35
2018-08-17T08:01:07.999Z,39.29
2018-08-17T08:03:36.474Z,39.84
2018-08-17T08:06:04.962Z,38.15
2018-08-17T08:08:33.425Z,38.69
2018-08-17T08:11:01.970Z,38.00
2018-08-17T08:13:30.387Z,38.17
2018-08-17T08:15:58.931Z,39.57
2018-08-17T08:18:27.415Z,38.93
2018-08-17T08:20:55.927Z,38.46
2018-08-17T08:23:27.277Z,36.96
2018-08-17T08:25:56.235Z,37.32
2018-08-17T08:28:24.717Z,38.02
2018-08-17T08:30:53.257Z,38.49
2018-08-17T08:33:21.894Z,39.04
2018-08-17T08:35:50.838Z,38.17
2018-08-17T08:38:19.633Z,40.32
2018-08-17T08:40:48.625Z,38.46
2018-08-17T08:43:17.121Z,39.00
2018-08-17T08:45:45.649Z,38.94
2018-08-17T08:48:14.081Z,38.60
2018-08-17T08:50:42.617Z,40.42
2018-08-17T08:53:11.129Z,40.99
2018-08-17T08:55:39.623Z,39.98
2018-08-17T08:58:09.085Z,41.26
2018-08-17T09:00:37.574Z,42.67
2018-08-17T09:03:06.951Z,43.05
2018-08-17T09:05:35.464Z,40.35
2018-08-17T09:08:04.125Z,40.37
2018-08-17T09:10:32.557Z,40.35
2018-08-17T09:14:25.425Z,39.98
2018-08-17T09:16:53.920Z,41.92
2018-08-17T09:19:22.402Z,42.80
2018-08-17T09:21:50.912Z,41.77
2018-08-17T09:24:19.391Z,42.33
2018-08-17T09:26:47.868Z,43.65
2018-08-17T09:29:38.154Z,42.39
2018-08-17T09:32:06.799Z,41.37
2018-08-17T09:34:35.848Z,42.48
2018-08-17T09:37:04.541Z,43.81
2018-08-17T09:39:33.054Z,44.27
2018-08-17T09:42:01.599Z,44.97
2018-08-17T09:44:30.030Z,44.36
2018-08-17T09:46:58.534Z,44.00
2018-08-17T09:49:27.929Z,41.55
2018-08-17T09:51:56.422Z,40.55
2018-08-17T09:54:24.883Z,40.45
2018-08-17T09:56:53.385Z,40.74
2018-08-17T09:59:21.842Z,41.64
2018-08-17T10:01:55.490Z,42.10
2018-08-17T10:04:29.333Z,42.76
2018-08-17T10:07:03.110Z,41.85
2018-08-17T10:09:36.898Z,41.78
2018-08-17T10:12:05.366Z,43.11
2018-08-17T10:17:13.079Z,42.43
2018-08-17T10:19:41.522Z,41.54
2018-08-17T10:22:10.221Z,40.61
2018-08-17T10:24:38.518Z,39.71
2018-08-17T10:27:07.073Z,39.71
2018-08-17T10:29:35.585Z,39.88
2018-08-17T10:32:04.067Z,40.88
2018-08-17T10:34:35.588Z,42.61
2018-08-17T10:37:04.077Z,42.66
2018-08-17T10:39:33.305Z,40.92
2018-08-17T10:42:01.774Z,40.87
2018-08-17T10:44:30.274Z,40.64
2018-08-17T10:46:59.300Z,42.31
2018-08-17T10:49:27.759Z,43.57
2018-08-17T10:51:57.085Z,44.46
2018-08-17T10:54:25.825Z,44.07
2018-08-17T10:56:54.379Z,44.77
2018-08-17T10:59:22.860Z,45.70
2018-08-17T11:01:52.232Z,45.44
2018-08-17T11:04:20.713Z,43.76
2018-08-17T11:06:49.215Z,43.05
2018-08-17T11:09:17.702Z,42.91
2018-08-17T11:11:46.142Z,45.17
2018-08-17T11:14:14.638Z,44.56
2018-08-17T11:16:43.101Z,42.61
2018-08-17T11:19:11.572Z,41.87
2018-08-17T11:21:40.034Z,40.75
2018-08-17T11:24:11.947Z,41.93
2018-08-17T11:26:40.389Z,41.46
2018-08-17T11:29:08.881Z,40.67
2018-08-17T11:31:37.857Z,40.24
2018-08-17T11:34:06.418Z,41.12
2018-08-17T11:36:34.945Z,40.56
2018-08-17T11:39:03.590Z,40.57
2018-08-17T11:41:32.122Z,41.28
2018-08-17T11:44:03.811Z,41.78
2018-08-17T11:46:32.586Z,40.92
2018-08-17T11:49:01.091Z,41.39
2018-08-17T11:51:29.826Z,40.53
2018-08-17T11:53:58.411Z,41.08
2018-08-17T11:56:26.853Z,40.78
2018-08-17T11:58:55.391Z,40.32
2018-08-17T12:01:26.924Z,39.40
2018-08-17T12:03:55.579Z,38.73
2018-08-17T12:06:24.352Z,40.80
2018-08-17T12:08:52.986Z,41.12
2018-08-17T12:11:21.494Z,39.96
2018-08-17T12:13:50.011Z,40.96
2018-08-17T12:16:18.483Z,38.71
2018-08-17T12:18:47.097Z,38.19
2018-08-17T12:21:15.555Z,39.30
2018-08-17T12:23:44.071Z,40.93
2018-08-17T12:26:13.247Z,40.79
2018-08-17T12:28:41.772Z,41.02
2018-08-17T12:31:10.301Z,41.86
2018-08-17T12:33:38.806Z,41.03
2018-08-17T12:36:08.937Z,39.33
2018-08-17T12:38:37.497Z,39.48
2018-08-17T12:41:08.201Z,40.15
2018-08-17T12:43:38.677Z,38.70
2018-08-17T12:46:07.482Z,37.10
2018-08-17T12:48:35.959Z,35.99
2018-08-17T12:51:05.625Z,35.69
2018-08-17T12:53:34.483Z,34.99
2018-08-17T12:56:03.065Z,34.79
2018-08-17T12:58:31.550Z,36.51
2018-08-17T13:01:00.073Z,37.80
2018-08-17T13:03:28.524Z,37.49
2018-08-17T13:05:57.052Z,37.73
2018-08-17T13:08:25.615Z,38.16
2018-08-17T13:10:55.737Z,38.46
2018-08-17T13:13:24.137Z,38.63
2018-08-17T13:15:57.824Z,38.76
2018-08-17T13:18:26.277Z,38.68
2018-08-17T13:20:55.435Z,40.18
2018-08-17T13:23:23.890Z,41.34
2018-08-17T13:25:53.414Z,41.19
2018-08-17T13:28:21.871Z,41.60
2018-08-17T13:30:50.381Z,41.78
2018-08-17T13:33:18.849Z,40.89
2018-08-17T13:35:47.373Z,40.84
2018-08-17T13:38:15.866Z,41.12
2018-08-17T13:40:44.361Z,40.16
2018-08-17T13:43:12.871Z,39.35
2018-08-17T13:45:41.390Z,39.34
2018-08-17T13:48:09.890Z,38.97
2018-08-17T13:50:38.429Z,37.66
2018-08-17T13:53:06.962Z,37.77
2018-08-17T13:55:35.461Z,38.27
2018-08-17T13:58:03.941Z,37.40
2018-08-17T14:00:32.445Z,36.15
2018-08-17T14:03:00.934Z,36.00
2018-08-17T14:05:29.420Z,36.57
2018-08-17T14:07:57.881Z,37.15
2018-08-17T14:10:27.131Z,36.54
2018-08-17T14:12:55.581Z,36.92
2018-08-17T14:15:24.117Z,37.33
2018-08-17T14:17:52.549Z,37.29
2018-08-17T14:20:21.858Z,37.08
2018-08-17T14:22:50.313Z,37.27
2018-08-17T14:25:18.961Z,38.40
2018-08-17T14:27:47.415Z,38.84
2018-08-17T14:30:18.017Z,38.06
2018-08-17T14:32:46.511Z,38.53
2018-08-17T14:35:15.408Z,37.88
2018-08-17T14:37:43.990Z,38.38
2018-08-17T14:40:13.267Z,37.86
2018-08-17T14:42:41.812Z,36.45
2018-08-17T14:45:11.035Z,36.07
2018-08-17T14:47:39.716Z,35.93
2018-08-17T14:50:10.012Z,35.23
2018-08-17T14:52:38.653Z,35.40
2018-08-17T14:55:07.570Z,35.63
2018-08-17T14:57:36.077Z,35.18
2018-08-17T15:00:05.419Z,35.05
2018-08-17T15:02:33.865Z,36.35
2018-08-17T15:05:02.322Z,36.19
2018-08-17T15:07:30.816Z,35.33
2018-08-17T15:09:59.226Z,35.43
2018-08-17T15:12:27.690Z,36.24
2018-08-17T15:14:56.133Z,36.32
2018-08-17T15:17:24.642Z,35.11
2018-08-17T15:19:53.077Z,34.70
2018-08-17T15:22:21.597Z,35.38
2018-08-17T15:24:50.105Z,35.22
2018-08-17T15:27:18.615Z,35.47
2018-08-17T15:29:47.366Z,35.70
2018-08-17T15:32:15.841Z,36.12
2018-08-17T15:34:44.313Z,36.92
2018-08-17T15:37:12.794Z,36.19
2018-08-17T15:39:41.241Z,35.00
2018-08-17T15:42:09.826Z,34.89
2018-08-17T15:44:38.277Z,35.78
2018-08-17T15:47:06.840Z,36.46
2018-08-17T15:49:36.627Z,36.44
2018-08-17T15:52:06.579Z,37.34
2018-08-17T15:54:35.006Z,37.85
2018-08-17T15:57:03.516Z,38.16
2018-08-17T15:59:32.029Z,38.28
2018-08-17T16:02:00.547Z,36.72
2018-08-17T16:04:28.996Z,35.94
2018-08-17T16:06:57.520Z,36.58
2018-08-17T16:09:25.992Z,37.17
2018-08-17T16:11:54.511Z,37.83
2018-08-17T16:14:22.989Z,38.36
2018-08-17T16:16:51.470Z,38.14
2018-08-17T16:19:19.953Z,37.85
2018-08-17T16:21:48.416Z,36.76
2018-08-17T16:24:16.894Z,36.41
2018-08-17T16:26:45.430Z,35.50
2018-08-17T16:29:13.898Z,34.49
2018-08-17T16:31:43.629Z,34.22
2018-08-17T16:34:12.091Z,33.83
2018-08-17T16:36:43.011Z,33.58
2018-08-17T16:39:14.319Z,34.45
2018-08-17T16:41:43.120Z,34.67
2018-08-17T16:44:11.950Z,35.03
2018-08-17T16:46:41.967Z,35.26
2018-08-17T16:49:10.514Z,34.77
2018-08-17T16:51:39.234Z,34.25
2018-08-17T16:54:07.770Z,33.69
2018-08-17T16:56:36.431Z,33.26
2018-08-17T16:59:05.084Z,33.59
2018-08-17T17:01:33.525Z,33.43
2018-08-17T17:04:02.047Z,33.59
2018-08-17T17:06:30.529Z,34.09
2018-08-17T17:09:03.093Z,34.16
2018-08-17T17:11:31.615Z,34.04
2018-08-17T17:14:00.129Z,33.50
2018-08-17T17:16:50.166Z,32.81
2018-08-17T17:19:21.650Z,32.10
2018-08-17T17:21:51.279Z,31.80
2018-08-17T17:24:20.426Z,31.55
2018-08-17T17:26:48.937Z,31.47
2018-08-17T17:29:18.452Z,31.47
2018-08-17T17:31:50.528Z,31.56
2018-08-17T17:34:19.115Z,31.55
2018-08-17T17:36:47.701Z,31.55
2018-08-17T17:39:16.297Z,31.51
2018-08-17T17:41:44.870Z,31.58
2018-08-17T17:44:13.391Z,31.45
2018-08-17T17:46:42.493Z,31.38
2018-08-17T17:49:11.414Z,31.00
2018-08-17T17:51:39.933Z,30.69
2018-08-17T17:54:08.571Z,30.44
2018-08-17T17:56:37.161Z,30.21
2018-08-17T17:59:11.070Z,29.96
2018-08-17T18:01:39.497Z,29.77
2018-08-17T18:04:08.010Z,29.55
2018-08-17T18:06:36.522Z,29.31
2018-08-17T18:09:06.138Z,29.10
2018-08-17T18:11:34.681Z,28.77
2018-08-17T18:14:03.218Z,28.64
2018-08-17T18:16:31.735Z,28.42
2018-08-17T18:19:00.263Z,28.26
2018-08-17T18:21:31.331Z,28.05
2018-08-17T18:24:05.057Z,27.85
2018-08-17T18:26:33.602Z,27.68
2018-08-17T18:29:02.150Z,27.50
2018-08-17T18:31:30.753Z,27.34
2018-08-17T18:33:59.256Z,27.25
2018-08-17T18:36:27.780Z,27.16
2018-08-17T18:38:56.291Z,26.98
2018-08-17T18:41:24.809Z,26.84
2018-08-17T18:43:53.320Z,26.78
2018-08-17T18:46:21.866Z,26.74
2018-08-17T18:48:50.394Z,26.64
2018-08-17T18:51:18.921Z,26.52
2018-08-17T18:53:47.429Z,26.34
2018-08-17T18:56:15.958Z,26.27
2018-08-17T18:58:44.449Z,26.07
2018-08-17T19:01:13.103Z,26.07
2018-08-17T19:03:41.814Z,26.03
2018-08-17T19:06:10.652Z,25.92
2018-08-17T19:08:39.593Z,25.77
2018-08-17T19:11:08.282Z,25.68
2018-08-17T19:13:36.924Z,25.57
2018-08-17T19:16:05.706Z,25.30
2018-08-17T19:18:34.269Z,25.29
2018-08-17T19:21:05.348Z,25.23
2018-08-17T19:23:33.874Z,25.07
2018-08-17T19:26:02.380Z,25.01
2018-08-17T19:28:31.190Z,25.00
2018-08-17T19:30:59.791Z,24.91
2018-08-17T19:33:28.670Z,24.94
2018-08-17T19:35:57.451Z,24.96
2018-08-17T19:38:26.059Z,24.86
2018-08-17T19:40:55.101Z,24.79
2018-08-17T19:43:23.697Z,24.65
2018-08-17T19:45:52.316Z,24.65
2018-08-17T19:48:21.352Z,24.60
2018-08-17T19:50:49.998Z,24.55
2018-08-17T19:53:19.543Z,24.49
2018-08-17T19:55:48.160Z,24.38
2018-08-17T19:58:17.040Z,24.32
2018-08-17T20:00:45.529Z,24.18
2018-08-17T20:03:14.226Z,24.14
2018-08-17T20:05:42.757Z,24.04
2018-08-17T20:08:11.320Z,24.07
2018-08-17T20:10:40.043Z,24.08
2018-08-17T20:13:08.975Z,24.05
2018-08-17T20:15:37.597Z,24.02
2018-08-17T20:18:06.536Z,24.05
2018-08-17T20:20:35.737Z,23.82
2018-08-17T20:23:04.340Z,23.82
2018-08-17T20:25:32.886Z,23.85
2018-08-17T20:28:01.508Z,23.76
2018-08-17T20:30:30.126Z,23.67
2018-08-17T20:32:58.669Z,23.67
2018-08-17T20:35:27.375Z,23.59
2018-08-17T20:37:55.938Z,23.49
2018-08-17T20:40:24.444Z,23.37
2018-08-17T20:42:54.775Z,23.20
2018-08-17T20:45:26.389Z,23.27
2018-08-17T20:47:55.086Z,23.24
2018-08-17T20:50:23.622Z,23.15
2018-08-17T20:52:57.531Z,23.07
2018-08-17T20:55:26.114Z,23.01
2018-08-17T20:57:55.853Z,22.98
2018-08-17T21:00:26.010Z,23.01
2018-08-17T21:02:55.430Z,22.99
2018-08-17T21:05:24.099Z,22.96
2018-08-17T21:07:52.621Z,23.00
2018-08-17T21:10:21.245Z,22.87
2018-08-17T21:12:50.059Z,22.88
2018-08-17T21:15:19.043Z,22.88
2018-08-17T21:17:48.161Z,22.88
2018-08-17T21:20:16.795Z,22.86
2018-08-17T21:22:45.326Z,22.57
2018-08-17T21:25:13.898Z,21.98
2018-08-17T21:27:42.452Z,21.52
2018-08-17T21:30:11.441Z,21.41
2018-08-17T21:32:39.970Z,21.27
2018-08-17T21:35:08.764Z,21.26
2018-08-17T21:37:37.845Z,21.26
2018-08-17T21:40:16.421Z,21.33
2018-08-17T21:42:44.989Z,21.40
2018-08-17T21:45:13.555Z,21.53
2018-08-17T21:47:42.081Z,21.58
2018-08-17T21:50:13.692Z,21.70
2018-08-17T21:52:42.799Z,21.75
2018-08-17T21:55:11.382Z,21.74
2018-08-17T21:57:39.903Z,21.84
2018-08-17T22:00:20.632Z,21.86
2018-08-17T22:02:49.291Z,21.91
2018-08-17T22:05:31.502Z,21.83
2018-08-17T22:08:00.594Z,21.83
2018-08-17T22:10:29.509Z,21.75
2018-08-17T22:12:58.055Z,21.80
2018-08-17T22:15:28.028Z,21.70
2018-08-17T22:17:56.579Z,21.72
2018-08-17T22:20:25.205Z,21.35
2018-08-17T22:22:53.741Z,21.04
2018-08-17T22:25:22.328Z,21.09
2018-08-17T22:27:50.957Z,21.07
2018-08-17T22:30:21.685Z,21.17
2018-08-17T22:32:50.357Z,21.09
2018-08-17T22:35:19.118Z,21.12
2018-08-17T22:37:47.565Z,21.26
2018-08-17T22:40:16.132Z,20.88
2018-08-17T22:42:47.379Z,20.68
2018-08-17T22:45:15.956Z,20.76
2018-08-17T22:47:44.506Z,20.80
2018-08-17T22:50:13.041Z,20.73
2018-08-17T22:52:41.553Z,20.74
2018-08-17T22:55:10.371Z,20.82
2018-08-17T22:57:38.931Z,20.89
2018-08-17T23:00:19.230Z,20.76
2018-08-17T23:02:51.874Z,20.51
2018-08-17T23:05:23.165Z,20.37
2018-08-17T23:07:51.710Z,20.34
2018-08-17T23:10:21.428Z,20.34
2018-08-17T23:12:51.005Z,20.23
2018-08-17T23:15:19.563Z,20.08
2018-08-17T23:17:54.339Z,20.05
2018-08-17T23:20:28.299Z,20.11
2018-08-17T23:22:59.066Z,20.16
2018-08-17T23:25:27.604Z,20.24
2018-08-17T23:27:56.373Z,20.29
2018-08-17T23:30:24.904Z,20.41
2018-08-17T23:32:53.628Z,20.45
2018-08-17T23:35:22.172Z,20.39
2018-08-17T23:37:50.800Z,20.43
2018-08-17T23:40:19.438Z,20.32
2018-08-17T23:42:49.038Z,20.30
2018-08-17T23:45:18.254Z,20.27
2018-08-17T23:47:47.221Z,20.35
2018-08-17T23:50:16.343Z,20.38
2018-08-17T23:52:45.025Z,20.15
2018-08-17T23:55:15.576Z,20.00
2018-08-17T23:57:44.158Z,19.79
